createdAt,value
2018-10-03T00:01:28.953Z,101270.00
2018-10-03T00:07:32.345Z,101288.00
2018-10-03T00:13:35.853Z,101277.00
2018-10-03T00:19:39.179Z,101286.00
2018-10-03T00:25:42.939Z,101290.00
2018-10-03T00:31:46.413Z,101303.00
2018-10-03T00:37:49.987Z,101318.00
2018-10-03T00:43:53.366Z,101320.00
2018-10-03T00:49:56.913Z,101323.00
2018-10-03T00:56:00.393Z,101313.00
2018-10-03T01:02:03.809Z,101332.00
2018-10-03T01:08:07.360Z,101330.00
2018-10-03T01:14:10.778Z,101335.00
2018-10-03T01:20:14.241Z,101343.00
2018-10-03T01:26:17.576Z,101330.00
2018-10-03T01:32:20.953Z,101322.00
2018-10-03T01:38:24.439Z,101323.00
2018-10-03T01:44:27.816Z,101342.00
2018-10-03T01:50:31.483Z,101347.00
2018-10-03T01:56:34.840Z,101339.00
2018-10-03T02:02:38.296Z,101343.00
2018-10-03T02:08:41.952Z,101343.00
2018-10-03T02:14:45.379Z,101355.00
2018-10-03T02:20:48.847Z,101358.00
2018-10-03T02:26:52.203Z,101342.00
2018-10-03T02:32:56.568Z,101361.00
2018-10-03T02:39:00.007Z,101362.00
2018-10-03T02:45:03.472Z,101373.00
2018-10-03T02:51:07.603Z,101381.00
2018-10-03T02:57:11.749Z,101302.00
2018-10-03T03:03:15.369Z,101385.00
2018-10-03T03:09:19.332Z,101393.00
2018-10-03T03:15:22.711Z,101395.00
2018-10-03T03:21:26.047Z,101394.00
2018-10-03T03:27:30.366Z,101394.00
2018-10-03T03:33:33.989Z,101396.00
2018-10-03T03:39:37.339Z,101400.00
2018-10-03T03:45:40.824Z,101418.00
2018-10-03T03:51:44.227Z,101419.00
2018-10-03T03:57:48.277Z,101415.00
2018-10-03T04:03:51.845Z,101437.00
2018-10-03T04:09:56.388Z,101438.00
2018-10-03T04:15:59.735Z,101432.00
2018-10-03T04:22:03.155Z,101435.00
2018-10-03T04:28:06.659Z,101445.00
2018-10-03T04:34:10.046Z,101459.00
2018-10-03T04:40:13.695Z,101478.00
2018-10-03T04:46:17.167Z,101468.00
2018-10-03T04:52:20.570Z,101471.00
2018-10-03T04:58:24.000Z,101490.00
2018-10-03T05:04:27.983Z,101478.00
2018-10-03T05:10:31.643Z,101483.00
2018-10-03T05:16:36.004Z,101502.00
2018-10-03T05:22:39.412Z,101518.00
2018-10-03T05:28:42.907Z,101519.00
2018-10-03T05:34:46.348Z,101513.00
2018-10-03T05:40:50.299Z,101525.00
2018-10-03T05:46:53.677Z,101535.00
2018-10-03T05:53:03.988Z,101536.00
2018-10-03T05:59:09.980Z,101545.00
2018-10-03T06:05:13.572Z,101566.00
2018-10-03T06:11:17.203Z,101584.00
2018-10-03T06:17:20.619Z,101576.00
2018-10-03T06:23:24.577Z,101580.00
2018-10-03T06:29:28.168Z,101597.00
2018-10-03T06:35:32.947Z,101616.00
2018-10-03T06:41:37.541Z,101615.00
2018-10-03T06:47:41.332Z,101640.00
2018-10-03T06:53:44.741Z,101623.00
2018-10-03T06:59:48.228Z,101642.00
2018-10-03T07:05:51.711Z,101657.00
2018-10-03T07:11:55.151Z,101683.00
2018-10-03T07:17:58.641Z,101692.00
2018-10-03T07:24:02.109Z,101705.00
2018-10-03T07:30:05.737Z,101706.00
2018-10-03T07:36:09.283Z,101720.00
2018-10-03T07:42:12.752Z,101722.00
2018-10-03T07:48:17.335Z,101726.00
2018-10-03T07:54:21.044Z,101741.00
2018-10-03T08:00:28.915Z,101757.00
2018-10-03T08:06:33.776Z,101759.00
2018-10-03T08:12:37.390Z,101760.00
2018-10-03T08:18:41.248Z,101762.00
2018-10-03T08:24:45.053Z,101781.00
2018-10-03T08:30:48.549Z,101785.00
2018-10-03T08:36:53.662Z,101789.00
2018-10-03T08:42:58.487Z,101799.00
2018-10-03T08:49:02.280Z,101804.00
2018-10-03T08:55:07.479Z,101819.00
2018-10-03T09:01:11.578Z,101823.00
2018-10-03T09:07:17.133Z,101829.00
2018-10-03T09:13:21.052Z,101833.00
2018-10-03T09:19:33.772Z,101842.00
2018-10-03T09:25:37.550Z,101850.00
2018-10-03T09:31:44.313Z,101840.00
2018-10-03T09:37:47.840Z,101848.00
2018-10-03T09:43:51.856Z,101842.00
2018-10-03T09:49:56.119Z,101853.00
2018-10-03T09:56:00.358Z,101883.00
2018-10-03T10:02:03.864Z,101885.00
2018-10-03T10:08:07.507Z,101889.00
2018-10-03T10:14:11.753Z,101894.00
2018-10-03T10:20:15.556Z,101901.00
2018-10-03T10:26:19.154Z,101899.00
2018-10-03T10:32:23.236Z,101889.00
2018-10-03T10:38:26.731Z,101896.00
2018-10-03T10:44:30.469Z,101893.00
2018-10-03T10:50:34.784Z,101907.00
2018-10-03T10:56:38.557Z,101909.00
2018-10-03T11:02:42.203Z,101912.00
2018-10-03T11:08:45.696Z,101918.00
2018-10-03T11:14:49.538Z,101917.00
2018-10-03T11:20:53.254Z,101940.00
2018-10-03T11:26:56.684Z,101937.00
2018-10-03T11:33:00.090Z,101946.00
2018-10-03T11:39:04.945Z,101938.00
2018-10-03T11:45:08.725Z,101932.00
2018-10-03T11:51:12.401Z,101930.00
2018-10-03T11:57:16.051Z,101935.00
2018-10-03T12:03:19.833Z,101932.00
2018-10-03T12:09:23.242Z,101935.00
2018-10-03T12:15:28.470Z,101939.00
2018-10-03T12:21:33.816Z,101925.00
2018-10-03T12:27:37.458Z,101946.00
2018-10-03T12:33:41.029Z,101929.00
2018-10-03T12:39:44.670Z,101931.00
2018-10-03T12:45:48.080Z,101926.00
2018-10-03T12:51:51.687Z,101914.00
2018-10-03T12:57:55.204Z,101939.00
2018-10-03T13:03:58.660Z,101945.00
2018-10-03T13:10:02.956Z,101931.00
2018-10-03T13:16:06.562Z,101932.00
2018-10-03T13:22:10.283Z,101934.00
2018-10-03T13:28:13.792Z,101943.00
2018-10-03T13:34:17.667Z,101951.00
2018-10-03T13:40:21.272Z,101934.00
2018-10-03T13:46:24.684Z,101933.00
2018-10-03T13:52:28.130Z,101924.00
2018-10-03T13:58:31.732Z,101923.00
2018-10-03T14:04:35.174Z,101917.00
2018-10-03T14:10:38.637Z,101916.00
2018-10-03T14:16:42.056Z,101917.00
2018-10-03T14:22:45.504Z,101929.00
2018-10-03T14:28:48.955Z,101927.00
2018-10-03T14:34:52.430Z,101926.00
2018-10-03T14:40:55.919Z,101928.00
2018-10-03T14:46:59.923Z,101925.00
2018-10-03T14:53:03.970Z,101921.00
2018-10-03T14:59:07.568Z,101924.00
2018-10-03T15:05:11.616Z,101915.00
2018-10-03T15:11:15.915Z,101914.00
2018-10-03T15:17:19.468Z,101913.00
2018-10-03T15:23:23.120Z,101925.00
2018-10-03T15:29:26.530Z,101923.00
2018-10-03T15:35:30.231Z,101939.00
2018-10-03T15:41:34.798Z,101934.00
2018-10-03T15:47:38.237Z,101935.00
2018-10-03T15:53:41.766Z,101931.00
2018-10-03T15:59:45.496Z,101928.00
2018-10-03T16:05:49.010Z,101931.00
2018-10-03T16:11:53.061Z,101936.00
2018-10-03T16:17:56.447Z,101941.00
2018-10-03T16:24:00.400Z,101941.00
2018-10-03T16:30:04.032Z,101956.00
2018-10-03T16:36:08.596Z,101960.00
2018-10-03T16:42:12.072Z,101963.00
2018-10-03T16:48:15.890Z,101971.00
2018-10-03T16:54:19.646Z,101984.00
2018-10-03T17:00:23.359Z,101977.00
2018-10-03T17:06:26.840Z,101997.00
2018-10-03T17:12:30.522Z,101997.00
2018-10-03T17:18:34.600Z,102003.00
2018-10-03T17:24:39.872Z,102011.00
2018-10-03T17:30:43.990Z,102008.00
2018-10-03T17:36:50.062Z,102022.00
2018-10-03T17:42:53.809Z,102021.00
2018-10-03T17:48:57.613Z,102032.00
2018-10-03T17:55:01.069Z,102034.00
2018-10-03T18:01:04.533Z,102042.00
2018-10-03T18:07:08.086Z,102038.00
2018-10-03T18:13:11.694Z,102055.00
2018-10-03T18:19:15.723Z,102053.00
2018-10-03T18:25:19.269Z,102054.00
2018-10-03T18:31:22.799Z,102050.00
2018-10-03T18:37:26.163Z,102062.00
2018-10-03T18:43:29.656Z,102063.00
2018-10-03T18:49:33.912Z,102064.00
2018-10-03T18:55:38.019Z,102062.00
2018-10-03T19:01:42.021Z,102063.00
2018-10-03T19:07:45.814Z,102054.00
2018-10-03T19:13:49.387Z,102062.00
2018-10-03T19:19:53.446Z,102076.00
2018-10-03T19:25:58.496Z,102074.00
2018-10-03T19:32:02.063Z,102084.00
2018-10-03T19:38:06.065Z,102079.00
2018-10-03T19:44:09.619Z,102077.00
2018-10-03T19:50:13.362Z,102077.00
2018-10-03T19:56:16.795Z,102077.00
2018-10-03T20:02:21.280Z,102073.00
2018-10-03T20:08:25.823Z,102091.00
2018-10-03T20:14:29.438Z,102090.00
2018-10-03T20:20:33.201Z,102098.00
2018-10-03T20:26:38.127Z,102086.00
2018-10-03T20:32:41.782Z,102094.00
2018-10-03T20:38:45.528Z,102104.00
2018-10-03T20:44:49.313Z,102101.00
2018-10-03T20:50:53.029Z,102103.00
2018-10-03T20:56:58.129Z,102108.00
2018-10-03T21:03:24.743Z,102116.00
2018-10-03T21:09:28.355Z,102104.00
2018-10-03T21:21:33.046Z,102110.00
2018-10-03T21:27:36.482Z,102106.00
2018-10-03T21:33:39.979Z,102114.00
2018-10-03T21:39:43.498Z,102116.00
2018-10-03T21:45:46.897Z,102121.00
2018-10-03T21:51:50.267Z,102122.00
2018-10-03T21:57:53.992Z,102118.00
2018-10-03T22:03:58.143Z,102115.00
2018-10-03T22:10:06.489Z,102114.00
2018-10-03T22:16:09.948Z,102113.00
2018-10-03T22:22:13.312Z,102112.00
2018-10-03T22:28:17.275Z,102109.00
2018-10-03T22:34:20.592Z,102115.00
2018-10-03T22:40:24.133Z,102113.00
2018-10-03T22:46:28.031Z,102117.00
2018-10-03T22:52:31.376Z,102104.00
2018-10-03T22:58:35.060Z,102116.00
2018-10-03T23:04:38.415Z,102112.00
2018-10-03T23:10:42.127Z,102106.00
2018-10-03T23:16:45.545Z,102110.00
2018-10-03T23:22:48.855Z,102108.00
2018-10-03T23:28:52.475Z,102104.00
2018-10-03T23:34:56.565Z,102107.00
2018-10-03T23:41:00.510Z,102115.00
2018-10-03T23:47:04.552Z,102114.00
2018-10-03T23:53:08.028Z,102114.00
2018-10-03T23:59:11.412Z,102110.00
